• Join FlightAware (Why Join?)
  • Login
  • US Flag 
03:11AM EDT


 

Airport Tracker/Info


-or-


 

Live Flight TrackerFlight Track Log ✈ AWE1940 ✈ 22-May-2013 ✈ KIAH - KCLT

Flight Track Log - Related Links

Times and Time Zones

All times are in EDT time to prevent confusion due to time zone crossing. See the AWE1940 flight status page for this flight to view local times or setup timezone preferences in your user account.

Time Position Orientation Groundspeed Altitude Reporting Facility
EDT Latitude Longitude Course Direction KTS MPH feet Rate Location/Type
06:43PM 29.9506 -95.3378 90° East 194 223 900  Level Houston Center
06:44PM 29.9039 -95.2764 131° Southeast 229 264 2,800 1,440 Climbing Houston Center
06:45PM 29.8506 -95.2075 132° Southeast 293 337 4,000 1,560 Climbing Houston Center
06:46PM 29.9834 -94.8024 90° East  Level FlightAware Approximate
06:46PM 29.8061 -95.1361 126° Southeast 287 330 5,800  Level Houston Center
06:47PM 29.9833 -94.6697 90° East  Level FlightAware Approximate
06:47PM 29.8178 -95.0381 82° East 282 325 8,900  Level Houston Center
06:48PM 29.9833 -94.5369 90° East  Level FlightAware Approximate
06:48PM 29.8433 -94.9358 74° East 290 334 11,100  Level Houston Center
06:49PM 29.8708 -94.8261 74° East 353 406 12,600 1,680 Climbing Houston Center
06:50PM 29.8978 -94.7097 75° East 375 432 14,700 1,860 Climbing Houston Center
06:52PM 29.9284 -94.5182 72° East  Level FlightAware Approximate
06:52PM 29.9553 -94.4450 72° East 410 472 18,500  Level Houston Center
06:53PM 29.9869 -94.3114 75° East 427 491 20,300 1,680 Climbing Houston Center
06:54PM 30.0217 -94.1450 76° East 443 510 22,000 1,260 Climbing Houston Center
06:55PM 30.0533 -93.9975 76° East 467 537 23,000 1,140 Climbing Houston Center
06:56PM 30.0856 -93.8436 76° East 489 563 24,400 1,200 Climbing Houston Center
06:57PM 30.1169 -93.6906 77° East 495 570 25,500 960 Climbing Houston Center
06:58PM 30.1486 -93.5339 77° East 508 585 26,500 1,200 Climbing Houston Center
06:59PM 30.1872 -93.3461 77° East 513 590 28,100 1,440 Climbing Houston Center
07:00PM 30.2211 -93.1928 76° East 504 580 29,500 1,020 Climbing Houston Center
07:01PM 30.2514 -93.0392 77° East 497 572 30,300 660 Climbing Houston Center
07:02PM 30.2819 -92.8836 77° East 498 573 30,900 240 Climbing Houston Center
07:04PM 30.3211 -92.6958 76° East 503 579 30,900  Level Houston Center
07:05PM 30.3811 -92.5517 64° Northeast 502 578 30,900  Level Houston Center
07:06PM 30.4444 -92.4106 62° Northeast 497 572 30,900  Level Houston Center
07:07PM 30.5111 -92.2589 63° Northeast 498 573 31,000  Climbing Houston Center
07:08PM 30.5744 -92.1167 63° Northeast 501 577 31,000  Level Houston Center
07:09PM 30.6375 -91.9753 63° Northeast 498 573 31,000  Level Houston Center
07:10PM 30.7000 -91.8328 63° Northeast 497 572 31,000  Level Houston Center
07:11PM 30.7753 -91.6631 63° Northeast 496 571 31,000  Level Houston Center
07:12PM 30.8353 -91.5214 64° Northeast 493 567 31,000  Level Houston Center
07:13PM 30.8975 -91.3806 63° Northeast 491 565 31,000  Level Houston Center
07:14PM 30.9239 -91.2261 79° East 492 566 31,000 -60 Level Houston Center
07:15PM 30.9364 -91.0644 85° East 491 565 30,900 -60 Descending Houston Center
07:16PM 30.9458 -90.9067 86° East 490 564 30,900  Level Houston Center
07:17PM 30.9608 -90.7181 85° East 488 562 30,900  Level Houston Center
07:18PM 30.9717 -90.5594 85° East 489 563 30,900  Level Houston Center
07:19PM 30.9811 -90.4019 86° East 488 562 30,900  Level Houston Center
07:20PM 30.9939 -90.2414 85° East 494 568 30,900  Level Houston Center
07:21PM 31.0044 -90.0811 86° East 494 568 30,900  Level Houston Center
07:22PM 31.0144 -89.9208 86° East 494 568 30,900  Level Houston Center
07:23PM 31.0247 -89.7592 86° East 498 573 30,900  Level Houston Center
07:24PM 31.0364 -89.5653 86° East 498 573 30,900  Level Houston Center
07:25PM 31.0478 -89.4017 85° East 503 579 30,900  Level Houston Center
07:26PM 31.0572 -89.2389 86° East 503 579 30,900  Level Houston Center
07:27PM 31.0647 -89.0722 87° East 509 586 30,900 -120 Level Houston Center
07:28PM 31.0731 -88.9111 87° East 505 581 30,700 -1,020 Descending Houston Center
07:29PM 31.0814 -88.7489 87° East 502 578 28,900 -900 Descending Houston Center
07:30PM 31.0931 -88.5831 85° East 507 583 28,900  Level Houston Center
07:31PM 31.1497 -88.4036 70° East 506 582 28,900  Level Houston Center
07:32PM 31.2392 -88.2736 51° Northeast 503 579 28,900  Level Houston Center
07:33PM 31.3242 -88.1428 53° Northeast 500 575 28,900  Level Houston Center
07:35PM 31.4094 -88.0117 53° Northeast 503 579 28,900  Level Houston Center
07:36PM 31.4928 -87.8811 53° Northeast 499 574 28,900  Level Houston Center
07:37PM 31.5772 -87.7508 53° Northeast 501 577 28,900  Level Houston Center
07:38PM 31.6853 -87.5872 52° Northeast 499 574 28,900  Level Atlanta Center
07:39PM 31.7703 -87.4586 52° Northeast 499 574 28,900  Level Atlanta Center
07:40PM 31.8597 -87.3131 54° Northeast 499 574 28,900  Level Atlanta Center
07:41PM 31.9425 -87.1814 53° Northeast 499 574 28,900  Level Atlanta Center
07:42PM 32.0272 -87.0472 53° Northeast 499 574 28,900  Level Atlanta Center
07:43PM 32.1117 -86.9153 53° Northeast 499 574 28,900  Level Atlanta Center
07:44PM 32.1919 -86.7853 54° Northeast 499 574 28,900  Level Atlanta Center
07:45PM 32.2739 -86.6672 51° Northeast 499 574 28,900  Level Atlanta Center
07:46PM 32.3558 -86.5369 53° Northeast 499 574 28,900  Level Atlanta Center
07:47PM 32.4419 -86.4067 52° Northeast 499 574 28,900  Level Atlanta Center
07:48PM 32.4864 -86.2575 71° East 493 567 28,900 -180 Level Atlanta Center
07:49PM 32.5433 -86.1061 66° East 486 559 28,600 -960 Descending Atlanta Center
07:50PM 32.5917 -85.9544 69° East 486 559 27,000 -840 Descending Atlanta Center
07:51PM 32.6419 -85.8050 68° East 486 559 27,000 -60 Level Atlanta Center
07:52PM 32.6919 -85.6531 69° East 486 559 26,900 -60 Descending Atlanta Center
07:53PM 32.7419 -85.5008 69° East 486 559 26,900  Level Atlanta Center
07:54PM 32.7958 -85.3533 66° East 486 559 26,900  Level Atlanta Center
07:55PM 32.8661 -85.2161 59° Northeast 486 559 26,900  Level Atlanta Center
07:56PM 32.9383 -85.0586 61° Northeast 481 554 26,900  Level Atlanta Center
07:57PM 33.0064 -84.9181 60° Northeast 486 559 26,900  Level Atlanta Center
07:58PM 33.0656 -84.7925 61° Northeast 481 554 26,900  Level Atlanta Center
07:59PM 33.1331 -84.6442 61° Northeast 487 560 27,000  Climbing Atlanta Center
08:00PM 33.2069 -84.5081 57° Northeast 495 570 26,900 -60 Descending Atlanta Center
08:01PM 33.3136 -84.3967 41° Northeast 487 560 26,900 -300 Level Atlanta Center
08:02PM 33.4203 -84.2903 40° Northeast 497 572 26,400 -1,020 Descending Atlanta Center
08:03PM 33.5269 -84.1783 41° Northeast 502 578 24,900 -780 Descending Atlanta Center
08:04PM 33.6211 -84.0561 47° Northeast 497 572 24,900  Level Atlanta Center
08:05PM 33.7150 -83.9289 48° Northeast 497 572 24,900  Level Atlanta Center
08:06PM 33.8067 -83.8039 49° Northeast 497 572 24,900  Level Atlanta Center
08:07PM 33.8961 -83.6758 50° Northeast 492 566 24,900  Level Atlanta Center
08:08PM 33.9497 -83.5256 67° East 487 560 24,900  Level Atlanta Center
08:09PM 33.9947 -83.3647 71° East 492 566 24,900  Level Atlanta Center
08:10PM 34.0189 -83.1892 81° East 487 560 24,900  Level Atlanta Center
08:11PM 34.0258 -83.0211 87° East 487 560 24,900 -300 Level Atlanta Center
08:12PM 34.0328 -82.8531 87° East 494 568 24,300 -540 Descending Atlanta Center
08:13PM 34.0456 -82.6925 84° East 494 568 23,900 -240 Descending Atlanta Center
08:14PM 34.1003 -82.5436 66° East 481 554 23,900  Level Atlanta Center
08:15PM 34.1486 -82.4122 66° East 473 544 23,900  Level Atlanta Center
08:16PM 34.2072 -82.2656 64° Northeast 473 544 23,900 -300 Level Atlanta Center
08:17PM 34.2739 -82.1208 61° Northeast 484 557 23,300 -1,740 Descending Atlanta Center
08:18PM 34.3658 -82.0056 46° Northeast 479 551 20,500 -2,940 Descending Atlanta Center
08:19PM 34.4619 -81.8847 46° Northeast 461 531 17,500 -2,940 Descending Atlanta Center
08:20PM 34.5314 -81.7997 45° Northeast 436 502 15,200 -2,700 Descending Atlanta Center
08:21PM 34.6231 -81.6811 47° Northeast 424 488 12,100 -1,560 Descending Atlanta Center
08:22PM 34.7006 -81.5881 45° Northeast 399 459 11,900 -120 Descending Atlanta Center
08:23PM 34.7758 -81.4897 47° Northeast 384 442 11,900 -60 Level Atlanta Center
08:24PM 34.8489 -81.3964 46° Northeast 391 450 11,800 -1,020 Descending Atlanta Center
08:25PM 34.9242 -81.3003 46° Northeast 385 443 9,900 -900 Descending Atlanta Center
08:26PM 35.0011 -81.1989 47° Northeast 376 433 10,000 -120 Climbing Atlanta Center
08:27PM 35.0536 -81.1286 48° Northeast 338 389 9,700 -540 Descending Atlanta Center
08:28PM 35.1292 -81.0625 36° Northeast 276 318 9,000 -720 Descending Atlanta Center
08:29PM 35.2003 -81.0675 357° North 245 282 8,200 -1,020 Descending Atlanta Center
08:30PM 35.2589 -81.0756 354° North 193 222 7,000 -1,440 Descending Atlanta Center
08:31PM 35.3175 -81.0836 354° North 207 238 5,300 -1,440 Descending Atlanta Center
08:32PM 35.3639 -81.1050 339° North 197 227 4,100 -1,140 Descending Atlanta Center
08:33PM 35.3497 -81.0289 103° East 195 224 2,900 -900 Descending Atlanta Center
08:34PM 35.3150 -80.9819 132° Southeast 177 204 2,200 -720 Descending Atlanta Center
08:35PM 35.2669 -80.9736 172° South 169 194 1,500 -720 Descending Atlanta Center
08:37PM 35.2137 -80.9491 158° South  Level Estimated